This is the latest recevied weather packets stored in our database for station/object N9ALD. If no packets are shown the sender has not sent any weather packets the latest 10 day(s).
| Time | Temp. | Humidity | Pressure | Rain* | Wind** | Luminosity | Snow |
|---|---|---|---|---|---|---|---|
| 1777383298 | 14.44° C | 87% | 1010.8 hPa | 0 mm | - | 160 W/m² | - |
| 1777382386 | 15° C | 88% | 1010.4 hPa | 0 mm | - | 170 W/m² | - |
| 1777381779 | 15° C | 88% | 1010.5 hPa | 0 mm | - | 170 W/m² | - |
| 1777381478 | 15° C | 90% | 1010.5 hPa | 0 mm | - | 144 W/m² | - |
| 1777381175 | 14.44° C | 89% | 1010.3 hPa | 0 mm | - | 145 W/m² | - |
| 1777379353 | 14.44° C | 93% | 1010.1 hPa | 0 mm | - | 89 W/m² | - |
| 1777378743 | 14.44° C | 94% | 1009.7 hPa | 0 mm | - | 63 W/m² | - |
| 1777378135 | 14.44° C | 94% | 1009.3 hPa | 0 mm | - | 41 W/m² | - |
| 1777377829 | 14.44° C | 95% | 1009.3 hPa | 0 mm | - | 26 W/m² | - |
| 1777377529 | 14.44° C | 95% | 1009.3 hPa | 0 mm | - | 28 W/m² | - |
| 1777376619 | 14.44° C | 96% | 1008.9 hPa | 0 mm | - | 23 W/m² | - |
| 1777372676 | 15° C | 99% | 1007.4 hPa | 0 mm | - | 0 W/m² | - |
| 1777372375 | 15° C | 99% | 1007.4 hPa | 0 mm | - | 0 W/m² | - |
| 1777372074 | 15.56° C | 99% | 1007.5 hPa | 0 mm | - | 0 W/m² | - |
| 1777371770 | 15.56° C | 99% | 1007.4 hPa | 0 mm | - | 0 W/m² | - |
| 1777371467 | 15.56° C | 99% | 1007.3 hPa | 0 mm | - | 0 W/m² | - |
| 1777371163 | 15.56° C | 99% | 1007.2 hPa | 0 mm | - | 0 W/m² | - |
| 1777370859 | 15.56° C | 99% | 1007.3 hPa | 0 mm | - | 0 W/m² | - |
| 1777370556 | 15.56° C | 99% | 1007.1 hPa | 0 mm | - | 0 W/m² | - |
| 1777370251 | 15.56° C | 99% | 1007.1 hPa | 0 mm | - | 0 W/m² | - |
| 1777369644 | 15.56° C | 99% | 1007 hPa | 0 mm | - | 0 W/m² | - |
| 1777369040 | 15.56° C | 99% | 1006.6 hPa | 0 mm | - | 0 W/m² | - |
| 1777368738 | 15.56° C | 99% | 1006.5 hPa | 0 mm | - | 0 W/m² | - |
| 1777368433 | 15.56° C | 99% | 1006.3 hPa | 0 mm | - | 0 W/m² | - |
| 1777367828 | 15.56° C | 99% | 1006.2 hPa | 0 mm | - | 0 W/m² | - |
* Rain latest hour (hover to see other rain measurements)
** Current wind speed in m/s (hover to see current wind gust speed)